createdAt,value
2019-06-10T00:06:11.803Z,51.20
2019-06-10T00:16:17.355Z,51.20
2019-06-10T00:26:22.795Z,51.30
2019-06-10T00:36:30.718Z,51.20
2019-06-10T00:46:35.363Z,51.20
2019-06-10T00:56:41.335Z,51.20
2019-06-10T01:06:47.092Z,51.20
2019-06-10T01:16:52.432Z,51.20
2019-06-10T01:26:57.871Z,51.20
2019-06-10T01:37:04.790Z,51.30
2019-06-10T01:47:11.841Z,51.30
2019-06-10T01:57:18.597Z,51.30
2019-06-10T02:07:24.626Z,51.70
2019-06-10T02:17:31.426Z,51.20
2019-06-10T02:27:38.167Z,51.30
2019-06-10T02:37:44.675Z,51.20
2019-06-10T02:47:53.126Z,51.30
2019-06-10T02:57:57.352Z,51.20
2019-06-10T03:08:03.884Z,51.20
2019-06-10T03:18:09.456Z,51.20
2019-06-10T03:28:15.403Z,51.20
2019-06-10T03:38:23.671Z,51.20
2019-06-10T03:48:29.491Z,51.30
2019-06-10T03:58:34.889Z,51.30
2019-06-10T04:08:40.298Z,51.30
2019-06-10T04:18:45.711Z,51.30
2019-06-10T04:28:53.048Z,51.30
2019-06-10T04:38:58.230Z,51.30
2019-06-10T04:49:03.745Z,51.30
2019-06-10T04:59:09.254Z,51.30
2019-06-10T05:09:14.661Z,51.30
2019-06-10T05:19:19.981Z,51.40
2019-06-10T05:29:27.830Z,51.40
2019-06-10T05:39:34.999Z,51.40
2019-06-10T05:49:39.615Z,51.40
2019-06-10T05:59:44.980Z,51.40
2019-06-10T06:09:50.385Z,51.40
2019-06-10T06:19:55.711Z,51.30
2019-06-10T06:30:06.977Z,51.40
2019-06-10T06:40:08.663Z,51.40
2019-06-10T06:50:14.095Z,51.50
2019-06-10T07:00:40.825Z,51.50
2019-06-10T07:10:30.929Z,51.40
2019-06-10T07:20:38.235Z,51.50
2019-06-10T07:30:51.106Z,51.40
2019-06-10T07:40:53.051Z,51.40
2019-06-10T07:50:58.371Z,51.40
2019-06-10T08:01:03.754Z,51.40
2019-06-10T08:11:09.213Z,51.30
2019-06-10T08:21:14.606Z,51.40
2019-06-10T08:31:22.370Z,51.40
2019-06-10T08:41:26.983Z,51.40
2019-06-10T08:51:32.545Z,51.30
2019-06-10T09:01:39.481Z,51.30
2019-06-10T09:11:47.897Z,51.30
2019-06-10T09:21:55.850Z,51.30
2019-06-10T09:31:59.265Z,51.40
2019-06-10T09:42:07.092Z,51.40
2019-06-10T09:52:13.449Z,51.40
2019-06-10T10:02:19.017Z,51.40
2019-06-10T10:12:24.371Z,51.50
2019-06-10T10:22:29.795Z,51.30
2019-06-10T10:32:35.129Z,51.40
2019-06-10T10:42:45.973Z,51.30
2019-06-10T10:52:48.600Z,51.40
2019-06-10T11:02:54.731Z,51.30
2019-06-10T11:13:02.326Z,51.40
2019-06-10T11:23:07.451Z,51.30
2019-06-10T11:33:12.775Z,51.30
2019-06-10T11:43:18.440Z,52.10
2019-06-10T11:53:23.868Z,51.40
2019-06-10T12:03:29.447Z,51.40
2019-06-10T12:13:34.979Z,51.40
2019-06-10T12:23:40.475Z,51.50
2019-06-10T12:33:45.785Z,51.40
2019-06-10T12:43:52.278Z,51.40
2019-06-10T12:53:59.346Z,51.40
2019-06-10T13:04:07.992Z,51.30
2019-06-10T13:14:13.160Z,51.30
2019-06-10T13:24:18.455Z,52.00
2019-06-10T13:34:23.791Z,51.40
2019-06-10T13:44:29.299Z,51.30
2019-06-10T13:54:34.674Z,51.30
2019-06-10T14:04:42.226Z,51.30
2019-06-10T14:14:47.187Z,51.30
2019-06-10T14:24:53.691Z,51.40
2019-06-10T14:34:59.450Z,51.30
2019-06-10T14:45:05.036Z,51.30
2019-06-10T14:55:11.863Z,51.30
2019-06-10T15:05:17.630Z,51.30
2019-06-10T15:15:23.816Z,51.60
2019-06-10T15:25:29.301Z,51.30
2019-06-10T15:35:35.967Z,51.20
2019-06-10T15:45:43.221Z,51.30
2019-06-10T15:56:10.082Z,51.30
2019-06-10T16:05:55.685Z,51.30
2019-06-10T16:16:03.375Z,51.20
2019-06-10T16:26:08.076Z,51.20
2019-06-10T16:36:14.839Z,51.30
2019-06-10T16:46:20.351Z,51.20
2019-06-10T16:56:26.443Z,51.20
2019-06-10T17:06:32.888Z,51.30
2019-06-10T17:16:40.550Z,51.20
2019-06-10T17:26:45.512Z,51.20
2019-06-10T17:36:50.902Z,51.10
2019-06-10T17:46:56.220Z,51.20
2019-06-10T17:57:02.349Z,51.20
2019-06-10T18:07:09.760Z,51.10
2019-06-10T18:17:15.058Z,51.10
2019-06-10T18:27:22.017Z,51.20
2019-06-10T18:37:28.181Z,51.10
2019-06-10T18:47:35.695Z,51.10
2019-06-10T18:57:42.620Z,51.10
2019-06-10T19:07:48.303Z,51.10
2019-06-10T19:17:53.839Z,51.20
2019-06-10T19:27:59.183Z,51.10
2019-06-10T19:38:04.644Z,51.10
2019-06-10T19:48:12.262Z,51.00
2019-06-10T19:58:17.141Z,51.10
2019-06-10T20:08:22.791Z,51.00
2019-06-10T20:18:28.299Z,51.00
2019-06-10T20:28:33.656Z,51.10
2019-06-10T20:38:43.562Z,51.00
2019-06-10T20:48:51.111Z,51.00
2019-06-10T20:58:54.963Z,51.00
2019-06-10T21:09:02.763Z,51.00
2019-06-10T21:19:07.618Z,51.00
2019-06-10T21:29:13.005Z,50.90
2019-06-10T21:39:18.588Z,50.90
2019-06-10T21:49:24.051Z,50.90
2019-06-10T21:59:29.521Z,51.00
2019-06-10T22:09:34.873Z,51.00
2019-06-10T22:19:42.737Z,50.90
2019-06-10T22:29:49.159Z,51.00
2019-06-10T22:39:56.215Z,50.90
2019-06-10T22:50:07.024Z,50.90
2019-06-10T23:00:12.961Z,50.90
2019-06-10T23:10:17.864Z,50.90
2019-06-10T23:20:24.130Z,50.90
2019-06-10T23:30:29.468Z,50.90
2019-06-10T23:40:34.829Z,50.90
2019-06-10T23:50:43.499Z,50.90
